Silver Cliff, CO

2:36 PM MDT on September 04, 2015 (GMT -0600)
Coronado Road | | Change Station
CLOSE
Current Station
Personal Weather Station
Location: Westcliffe, CO
Elevation: 8159 ft
Nearby Weather Stations

Elev 8159 ft 38.12 °N, 105.55 °W | Updated 12 seconds ago

Mostly Cloudy
Mostly Cloudy
70.3 °F
Feels Like 77 °F
N
8.3
Wind Variable Wind from SSW
Gusts 9.8 mph

Today
High -- | Low -- °F
--% Chance of Precip.
Yesterday
High -- | Low -- °F
Precip. -- in
6:33 AM 7:27 PM
Waning Gibbous, 56% visible
Pressure 30.23 in
Visibility 10.0 miles
Clouds Mostly Cloudy 8000 ft
Mostly Cloudy 9000 ft
Mostly Cloudy 12000 ft
Heat Index 77 °F
Dew Point 41 °F
Humidity 35%
Rainfall 0.00 in
Snow Depth Not available.
UV 2.0 out of 12
Pollen 10.80 out of 12
Air Quality Not available.
Flu Activity Not available.
METAR K04V 042011Z AUTO 21004KT 10SM BKN080 BKN090 BKN120 20/07 A3023 RMK AO2
Pressure 30.23 in
Visibility 10.0 miles
Clouds Mostly Cloudy 8000 ft
Mostly Cloudy 9000 ft
Mostly Cloudy 12000 ft
Heat Index 77 °F
Dew Point 41 °F
Humidity 35%
Rainfall 0.00 in
Snow Depth Not available.
UV 2.0 out of 12
Pollen 10.80 out of 12
Air Quality Not available.
Flu Activity Not available.
METAR K04V 042011Z AUTO 21004KT 10SM BKN080 BKN090 BKN120 20/07 A3023 RMK AO2

10-Day Weather Forecast

×

Almanac

Astronomy

Sep. 04, 2015 Rise Set
Actual Time
Civil Twilight
Nautical Twilight
Astronomical Twilight
Moon
Length of Visible Light
Length of Day
Tomorrow will be .
, % of the Moon is Illuminated

Today's Extremes

State Highs State Lows

Community

WunderPhotos

Upload Photos

1,852,283 photos uploaded!

WunderBlogs® & News

Nearby

Air Quality

  Air Quality AQ Index Pollutant
Not available.

Snow Depth

Station Depth Elevation

Earthquake Activity

City Distance Mag. Time & Date
Minimum magnitude displayed is 2.5.

Coastal Water Temperatures

Place Temperature

Stations

Nearby Weather Stations

Station Location Temp. Windchill Dew Point Humidity Wind Precip. Elev Updated Type